createdAt,value
2018-03-25T00:00:21.173Z,980.38
2018-03-25T00:01:21.351Z,980.38
2018-03-25T00:02:21.526Z,980.37
2018-03-25T00:03:21.691Z,980.36
2018-03-25T00:04:21.871Z,980.37
2018-03-25T00:05:22.048Z,980.39
2018-03-25T00:06:22.223Z,980.37
2018-03-25T00:07:22.394Z,980.36
2018-03-25T00:08:22.582Z,980.43
2018-03-25T00:09:22.763Z,980.42
2018-03-25T00:10:22.936Z,980.43
2018-03-25T00:11:23.115Z,980.42
2018-03-25T00:12:23.278Z,980.43
2018-03-25T00:13:23.515Z,980.45
2018-03-25T00:14:23.633Z,980.42
2018-03-25T00:15:23.812Z,980.46
2018-03-25T00:16:23.990Z,980.49
2018-03-25T00:17:24.165Z,980.43
2018-03-25T00:18:24.333Z,980.43
2018-03-25T00:19:24.515Z,980.43
2018-03-25T00:20:24.686Z,980.44
2018-03-25T00:21:24.854Z,980.39
2018-03-25T00:22:25.025Z,980.42
2018-03-25T00:23:25.222Z,980.43
2018-03-25T00:24:25.373Z,980.45
2018-03-25T00:25:25.550Z,980.44
2018-03-25T00:26:25.731Z,980.46
2018-03-25T00:27:25.910Z,980.51
2018-03-25T00:28:26.081Z,980.52
2018-03-25T00:29:26.258Z,980.52
2018-03-25T00:30:26.434Z,980.53
2018-03-25T00:31:26.612Z,980.52
2018-03-25T00:32:26.781Z,980.53
2018-03-25T00:33:26.963Z,980.51
2018-03-25T00:34:27.144Z,980.51
2018-03-25T00:35:27.307Z,980.57
2018-03-25T00:36:27.481Z,980.53
2018-03-25T00:37:27.650Z,980.48
2018-03-25T00:38:27.826Z,980.53
2018-03-25T00:39:27.998Z,980.52
2018-03-25T00:40:28.174Z,980.53
2018-03-25T00:41:28.354Z,980.54
2018-03-25T00:42:28.530Z,980.57
2018-03-25T00:43:28.698Z,980.55
2018-03-25T00:44:28.879Z,980.58
2018-03-25T00:45:29.045Z,980.60
2018-03-25T00:46:29.225Z,980.55
2018-03-25T00:47:29.401Z,980.56
2018-03-25T00:48:29.574Z,980.57
2018-03-25T00:49:29.750Z,980.56
2018-03-25T00:50:29.930Z,980.56
2018-03-25T00:51:30.104Z,980.55
2018-03-25T00:52:30.279Z,980.57
2018-03-25T00:53:30.459Z,980.57
2018-03-25T00:54:30.630Z,980.52
2018-03-25T00:55:30.798Z,980.55
2018-03-25T00:56:30.983Z,980.54
2018-03-25T00:57:31.152Z,980.56
2018-03-25T00:58:31.330Z,980.56
2018-03-25T00:59:31.492Z,980.52
2018-03-25T01:00:31.664Z,980.56
2018-03-25T01:01:31.815Z,980.54
2018-03-25T01:02:31.981Z,980.52
2018-03-25T01:03:32.157Z,980.53
2018-03-25T01:04:32.326Z,980.53
2018-03-25T01:05:32.507Z,980.54
2018-03-25T01:06:32.705Z,980.57
2018-03-25T01:07:32.880Z,980.53
2018-03-25T01:08:33.059Z,980.50
2018-03-25T01:09:33.232Z,980.51
2018-03-25T01:10:33.416Z,980.50
2018-03-25T01:11:33.596Z,980.52
2018-03-25T01:12:33.768Z,980.50
2018-03-25T01:13:33.951Z,980.48
2018-03-25T01:14:34.481Z,980.46
2018-03-25T01:15:34.304Z,980.44
2018-03-25T01:16:34.479Z,980.43
2018-03-25T01:17:34.652Z,980.42
2018-03-25T01:18:34.825Z,980.43
2018-03-25T01:19:34.996Z,980.40
2018-03-25T01:20:35.175Z,980.45
2018-03-25T01:21:35.357Z,980.40
2018-03-25T01:22:35.524Z,980.44
2018-03-25T01:23:35.690Z,980.40
2018-03-25T01:24:36.158Z,980.42
2018-03-25T01:25:36.028Z,980.41
2018-03-25T01:26:36.202Z,980.40
2018-03-25T01:28:36.559Z,980.35
2018-03-25T01:29:36.718Z,980.37
2018-03-25T01:30:36.892Z,980.36
2018-03-25T01:31:37.064Z,980.39
2018-03-25T01:32:37.283Z,980.35
2018-03-25T01:33:37.412Z,980.34
2018-03-25T01:34:37.588Z,980.37
2018-03-25T01:35:37.762Z,980.38
2018-03-25T01:36:37.925Z,980.38
2018-03-25T01:38:38.269Z,980.44
2018-03-25T01:39:38.443Z,980.43
2018-03-25T01:40:38.615Z,980.46
2018-03-25T01:41:38.796Z,980.43
2018-03-25T01:42:38.972Z,980.47
2018-03-25T01:43:39.146Z,980.46
2018-03-25T01:44:39.330Z,980.44
2018-03-25T01:45:39.486Z,980.43
2018-03-25T01:46:39.668Z,980.46
2018-03-25T01:47:39.849Z,980.48
2018-03-25T01:48:40.016Z,980.53
2018-03-25T01:49:40.187Z,980.45
2018-03-25T01:50:40.362Z,980.49
2018-03-25T01:51:40.539Z,980.47
2018-03-25T01:52:40.717Z,980.50
2018-03-25T01:53:40.889Z,980.49
2018-03-25T01:54:41.061Z,980.44
2018-03-25T01:55:41.252Z,980.42
2018-03-25T01:56:41.411Z,980.39
2018-03-25T01:57:41.948Z,980.43
2018-03-25T01:58:41.768Z,980.43
2018-03-25T01:59:41.938Z,980.40
2018-03-25T02:00:42.113Z,980.42
2018-03-25T02:01:42.297Z,980.42
2018-03-25T02:02:42.475Z,980.42
2018-03-25T02:03:42.656Z,980.40
2018-03-25T02:04:42.824Z,980.40
2018-03-25T02:05:42.997Z,980.41
2018-03-25T02:06:43.169Z,980.42
2018-03-25T02:07:43.348Z,980.44
2018-03-25T02:08:43.532Z,980.41
2018-03-25T02:09:43.699Z,980.38
2018-03-25T02:10:43.873Z,980.35
2018-03-25T02:11:44.053Z,980.36
2018-03-25T02:12:44.231Z,980.35
2018-03-25T02:13:44.409Z,980.36
2018-03-25T02:14:44.583Z,980.36
2018-03-25T02:15:44.750Z,980.37
2018-03-25T02:16:44.928Z,980.34
2018-03-25T02:17:45.106Z,980.32
2018-03-25T02:18:45.281Z,980.36
2018-03-25T02:19:45.454Z,980.38
2018-03-25T02:20:45.625Z,980.34
2018-03-25T02:21:45.801Z,980.36
2018-03-25T02:22:45.976Z,980.36
2018-03-25T02:23:46.149Z,980.34
2018-03-25T02:24:46.339Z,980.34
2018-03-25T02:25:46.509Z,980.35
2018-03-25T02:26:46.680Z,980.36
2018-03-25T02:27:46.859Z,980.33
2018-03-25T02:28:47.036Z,980.36
2018-03-25T02:29:47.201Z,980.33
2018-03-25T02:30:47.376Z,980.32
2018-03-25T02:31:47.560Z,980.33
2018-03-25T02:32:47.739Z,980.36
2018-03-25T02:33:47.912Z,980.42
2018-03-25T02:34:48.089Z,980.37
2018-03-25T02:35:48.264Z,980.37
2018-03-25T02:36:48.435Z,980.33
2018-03-25T02:37:48.618Z,980.36
2018-03-25T02:38:48.785Z,980.35
2018-03-25T02:39:48.961Z,980.38
2018-03-25T02:40:49.141Z,980.38
2018-03-25T02:41:49.311Z,980.38
2018-03-25T02:42:49.489Z,980.37
2018-03-25T02:43:49.665Z,980.40
2018-03-25T02:44:49.852Z,980.42
2018-03-25T02:45:50.014Z,980.37
2018-03-25T02:46:50.210Z,980.42
2018-03-25T02:47:50.369Z,980.42
2018-03-25T02:48:50.540Z,980.40
2018-03-25T02:49:50.712Z,980.40
2018-03-25T02:50:50.889Z,980.47
2018-03-25T02:51:51.059Z,980.42
2018-03-25T02:52:51.240Z,980.45
2018-03-25T02:53:51.406Z,980.38
2018-03-25T02:54:51.586Z,980.45
2018-03-25T02:55:51.760Z,980.45
2018-03-25T02:56:51.935Z,980.43
2018-03-25T02:57:52.108Z,980.39
2018-03-25T02:58:52.269Z,980.40
2018-03-25T02:59:52.449Z,980.39
2018-03-25T03:00:52.626Z,980.43
2018-03-25T03:01:52.805Z,980.45
2018-03-25T03:02:52.977Z,980.44
2018-03-25T03:03:53.152Z,980.44
2018-03-25T03:04:53.333Z,980.45
2018-03-25T03:05:53.516Z,980.43
2018-03-25T03:06:53.679Z,980.48
2018-03-25T03:07:53.862Z,980.49
2018-03-25T03:08:54.028Z,980.45
2018-03-25T03:09:54.218Z,980.47
2018-03-25T03:10:54.387Z,980.45
2018-03-25T03:11:54.567Z,980.46
2018-03-25T03:12:54.739Z,980.48
2018-03-25T03:13:54.910Z,980.47
2018-03-25T03:14:55.096Z,980.54
2018-03-25T03:15:55.268Z,980.53
2018-03-25T03:16:55.444Z,980.53
2018-03-25T03:17:55.616Z,980.53
2018-03-25T03:18:55.785Z,980.53
2018-03-25T03:19:55.965Z,980.54
2018-03-25T03:20:56.138Z,980.55
2018-03-25T03:21:56.313Z,980.59
2018-03-25T03:22:56.486Z,980.58
2018-03-25T03:23:56.664Z,980.57
2018-03-25T03:24:56.850Z,980.64
2018-03-25T03:25:57.019Z,980.61
2018-03-25T03:26:57.198Z,980.61
2018-03-25T03:27:57.377Z,980.64
2018-03-25T03:28:57.554Z,980.64
2018-03-25T03:29:57.734Z,980.61
2018-03-25T03:30:57.910Z,980.63
2018-03-25T03:31:58.080Z,980.66
2018-03-25T03:32:58.251Z,980.62
2018-03-25T03:33:58.425Z,980.62
2018-03-25T03:34:58.595Z,980.67
2018-03-25T03:35:58.781Z,980.66
2018-03-25T03:36:58.952Z,980.70
2018-03-25T03:37:59.123Z,980.70
2018-03-25T03:38:59.295Z,980.69
2018-03-25T03:39:59.472Z,980.65
2018-03-25T03:40:59.648Z,980.71
2018-03-25T03:41:59.827Z,980.70
2018-03-25T03:43:00.001Z,980.71
2018-03-25T03:44:00.172Z,980.69
2018-03-25T03:45:00.344Z,980.73
2018-03-25T03:46:00.522Z,980.71
2018-03-25T03:47:00.693Z,980.74
2018-03-25T03:48:00.869Z,980.72
2018-03-25T03:49:01.044Z,980.76
2018-03-25T03:50:01.227Z,980.72
2018-03-25T03:51:01.400Z,980.73
2018-03-25T03:52:01.573Z,980.74
2018-03-25T03:53:01.745Z,980.74
2018-03-25T03:54:01.932Z,980.71
2018-03-25T03:55:02.091Z,980.72
2018-03-25T03:56:02.280Z,980.73
2018-03-25T03:57:02.452Z,980.71
2018-03-25T03:58:02.631Z,980.69
2018-03-25T03:59:02.802Z,980.72
2018-03-25T04:00:02.978Z,980.76
2018-03-25T04:01:03.157Z,980.73
2018-03-25T04:02:03.327Z,980.76
2018-03-25T04:03:03.500Z,980.78
2018-03-25T04:04:03.680Z,980.79
2018-03-25T04:05:03.842Z,980.81
2018-03-25T04:06:04.022Z,980.79
2018-03-25T04:07:04.202Z,980.74
2018-03-25T04:08:04.388Z,980.75
2018-03-25T04:09:04.612Z,980.76
2018-03-25T04:10:04.729Z,980.74
2018-03-25T04:11:04.907Z,980.76
2018-03-25T04:12:05.094Z,980.77
2018-03-25T04:13:05.254Z,980.74
2018-03-25T04:14:05.431Z,980.79
2018-03-25T04:15:05.606Z,980.77
2018-03-25T04:16:05.779Z,980.77
2018-03-25T04:17:05.954Z,980.79
2018-03-25T04:18:06.371Z,980.78
2018-03-25T04:19:06.306Z,980.80
2018-03-25T04:20:06.481Z,980.78
2018-03-25T04:21:06.659Z,980.80
2018-03-25T04:22:06.826Z,980.78
2018-03-25T04:23:07.007Z,980.81
2018-03-25T04:24:07.186Z,980.83
2018-03-25T04:25:07.365Z,980.79
2018-03-25T04:26:07.538Z,980.81
2018-03-25T04:27:07.712Z,980.78
2018-03-25T04:28:07.895Z,980.78
2018-03-25T04:29:08.070Z,980.82
2018-03-25T04:30:08.231Z,980.82
2018-03-25T04:31:08.426Z,980.81
2018-03-25T04:32:08.614Z,980.77
2018-03-25T04:33:08.777Z,980.85
2018-03-25T04:34:08.947Z,980.87
2018-03-25T04:35:09.126Z,980.83
2018-03-25T04:36:09.302Z,980.81
2018-03-25T04:37:09.471Z,980.87
2018-03-25T04:38:09.655Z,980.85
2018-03-25T04:39:09.822Z,980.90
2018-03-25T04:40:09.990Z,980.91
2018-03-25T04:41:10.166Z,980.90
2018-03-25T04:42:10.337Z,980.86
2018-03-25T04:43:10.505Z,980.91
2018-03-25T04:44:10.681Z,980.87
2018-03-25T04:46:11.036Z,980.89
2018-03-25T04:47:11.213Z,980.87
2018-03-25T04:48:11.388Z,980.89
2018-03-25T04:49:11.564Z,980.91
2018-03-25T04:50:11.739Z,980.92
2018-03-25T04:51:11.946Z,980.94
2018-03-25T04:52:12.083Z,980.90
2018-03-25T04:53:12.272Z,980.92
2018-03-25T04:54:12.431Z,980.95
2018-03-25T04:55:12.604Z,980.93
2018-03-25T04:56:12.777Z,980.94
2018-03-25T04:57:12.953Z,980.92
2018-03-25T04:58:13.131Z,980.94
2018-03-25T04:59:13.304Z,980.93
2018-03-25T05:00:13.475Z,980.91
2018-03-25T05:01:13.654Z,980.94
2018-03-25T05:02:13.834Z,980.86
2018-03-25T05:03:14.005Z,980.91
2018-03-25T05:04:14.178Z,980.92
2018-03-25T05:05:14.360Z,980.96
2018-03-25T05:06:14.528Z,980.96
2018-03-25T05:07:14.710Z,980.99
2018-03-25T05:08:14.881Z,980.95
2018-03-25T05:09:15.055Z,981.00
2018-03-25T05:10:15.226Z,980.99
2018-03-25T05:11:15.430Z,980.99
2018-03-25T05:12:15.575Z,981.02
2018-03-25T05:13:15.741Z,980.99
2018-03-25T05:14:15.916Z,981.03
2018-03-25T05:15:16.096Z,981.04
2018-03-25T05:16:16.274Z,981.04
2018-03-25T05:17:16.450Z,981.03
2018-03-25T05:18:16.626Z,981.04
2018-03-25T05:19:17.034Z,981.04
2018-03-25T05:20:16.971Z,981.08
2018-03-25T05:21:17.148Z,981.08
2018-03-25T05:22:17.329Z,981.11
2018-03-25T05:23:17.496Z,981.14
2018-03-25T05:24:17.674Z,981.11
2018-03-25T05:25:17.850Z,981.18
2018-03-25T05:26:18.028Z,981.18
2018-03-25T05:27:18.203Z,981.15
2018-03-25T05:28:18.379Z,981.21
2018-03-25T05:29:18.558Z,981.21
2018-03-25T05:30:18.736Z,981.21
2018-03-25T05:31:18.906Z,981.19
2018-03-25T05:32:19.084Z,981.23
2018-03-25T05:33:19.260Z,981.26
2018-03-25T05:34:19.438Z,981.21
2018-03-25T05:35:19.604Z,981.25
2018-03-25T05:36:19.779Z,981.19
2018-03-25T05:37:19.958Z,981.24
2018-03-25T05:38:20.128Z,981.21
2018-03-25T05:39:20.309Z,981.22
2018-03-25T05:40:20.477Z,981.21
2018-03-25T05:41:20.662Z,981.25
2018-03-25T05:42:20.826Z,981.27
2018-03-25T05:43:21.001Z,981.26
2018-03-25T05:44:21.171Z,981.28
2018-03-25T05:45:21.345Z,981.26
2018-03-25T05:46:21.524Z,981.28
2018-03-25T05:47:21.699Z,981.33
2018-03-25T05:48:21.869Z,981.32
2018-03-25T05:49:22.040Z,981.32
2018-03-25T05:50:22.213Z,981.31
2018-03-25T05:51:22.395Z,981.30
2018-03-25T05:52:22.566Z,981.36
2018-03-25T05:53:23.004Z,981.36
2018-03-25T05:54:22.955Z,981.41
2018-03-25T05:55:23.127Z,981.43
2018-03-25T05:56:23.307Z,981.49
2018-03-25T05:57:23.481Z,981.46
2018-03-25T05:58:23.940Z,981.51
2018-03-25T05:59:23.832Z,981.50
2018-03-25T06:00:24.002Z,981.52
2018-03-25T06:01:24.213Z,981.49
2018-03-25T06:02:24.362Z,981.50
2018-03-25T06:03:24.532Z,981.51
2018-03-25T06:04:24.709Z,981.55
2018-03-25T06:05:24.893Z,981.55
2018-03-25T06:06:25.057Z,981.53
2018-03-25T06:07:25.233Z,981.56
2018-03-25T06:08:25.414Z,981.56
2018-03-25T06:09:25.673Z,981.61
2018-03-25T06:10:25.762Z,981.62
2018-03-25T06:12:26.122Z,981.66
2018-03-25T06:13:26.296Z,981.66
2018-03-25T06:14:26.474Z,981.69
2018-03-25T06:15:26.653Z,981.71
2018-03-25T06:16:26.836Z,981.69
2018-03-25T06:17:27.012Z,981.70
2018-03-25T06:18:27.190Z,981.73
2018-03-25T06:19:27.371Z,981.80
2018-03-25T06:20:27.542Z,981.77
2018-03-25T06:21:27.719Z,981.79
2018-03-25T06:22:27.896Z,981.78
2018-03-25T06:23:28.120Z,981.78
2018-03-25T06:24:28.251Z,981.88
2018-03-25T06:25:28.427Z,981.87
2018-03-25T06:26:28.599Z,981.88
2018-03-25T06:27:28.782Z,981.87
2018-03-25T06:28:28.955Z,981.90
2018-03-25T06:29:29.137Z,981.92
2018-03-25T06:30:29.311Z,981.90
2018-03-25T06:31:29.493Z,981.91
2018-03-25T06:32:29.673Z,981.85
2018-03-25T06:33:29.852Z,981.90
2018-03-25T06:34:30.027Z,981.89
2018-03-25T06:35:30.202Z,981.88
2018-03-25T06:36:30.400Z,981.85
2018-03-25T06:37:30.567Z,981.92
2018-03-25T06:38:30.744Z,981.93
2018-03-25T06:39:30.920Z,981.93
2018-03-25T06:40:31.097Z,981.95
2018-03-25T06:41:31.272Z,981.90
2018-03-25T06:42:31.450Z,981.96
2018-03-25T06:43:31.625Z,981.97
2018-03-25T06:44:31.812Z,981.96
2018-03-25T06:45:32.240Z,981.98
2018-03-25T06:46:32.173Z,982.02
2018-03-25T06:47:32.348Z,982.03
2018-03-25T06:48:32.527Z,982.03
2018-03-25T06:49:32.720Z,982.03
2018-03-25T06:50:32.894Z,982.07
2018-03-25T06:51:33.084Z,982.02
2018-03-25T06:52:33.250Z,982.07
2018-03-25T06:53:33.430Z,982.05
2018-03-25T06:54:33.617Z,982.16
2018-03-25T06:55:33.800Z,982.09
2018-03-25T06:56:33.985Z,982.11
2018-03-25T06:57:34.176Z,982.12
2018-03-25T06:58:34.358Z,982.14
2018-03-25T06:59:34.544Z,982.17
2018-03-25T07:00:34.710Z,982.16
2018-03-25T07:01:34.893Z,982.15
2018-03-25T07:02:35.077Z,982.12
2018-03-25T07:03:35.257Z,982.15
2018-03-25T07:04:35.448Z,982.15
2018-03-25T07:05:35.619Z,982.13
2018-03-25T07:06:35.805Z,982.12
2018-03-25T07:07:35.981Z,982.17
2018-03-25T07:08:36.204Z,982.21
2018-03-25T07:09:36.340Z,982.19
2018-03-25T07:10:36.538Z,982.22
2018-03-25T07:11:36.709Z,982.23
2018-03-25T07:12:36.889Z,982.25
2018-03-25T07:13:37.074Z,982.25
2018-03-25T07:14:37.264Z,982.20
2018-03-25T07:15:37.441Z,982.22
2018-03-25T07:16:37.624Z,982.23
2018-03-25T07:17:37.802Z,982.27
2018-03-25T07:18:37.991Z,982.24
2018-03-25T07:19:38.421Z,982.25
2018-03-25T07:20:38.358Z,982.26
2018-03-25T07:21:38.599Z,982.26
2018-03-25T07:22:38.731Z,982.27
2018-03-25T07:23:38.913Z,982.25
2018-03-25T07:24:39.151Z,982.27
2018-03-25T07:25:39.854Z,982.30
2018-03-25T07:26:39.468Z,982.29
2018-03-25T07:27:39.658Z,982.26
2018-03-25T07:28:39.829Z,982.32
2018-03-25T07:29:40.011Z,982.30
2018-03-25T07:30:40.188Z,982.29
2018-03-25T07:31:40.374Z,982.32
2018-03-25T07:32:40.546Z,982.32
2018-03-25T07:33:40.719Z,982.33
2018-03-25T07:34:40.899Z,982.39
2018-03-25T07:35:41.079Z,982.38
2018-03-25T07:36:41.258Z,982.39
2018-03-25T07:37:41.483Z,982.42
2018-03-25T07:38:41.629Z,982.42
2018-03-25T07:39:41.804Z,982.43
2018-03-25T07:40:41.986Z,982.45
2018-03-25T07:41:42.177Z,982.47
2018-03-25T07:42:42.360Z,982.48
2018-03-25T07:43:42.551Z,982.42
2018-03-25T07:44:42.733Z,982.43
2018-03-25T07:45:42.904Z,982.48
2018-03-25T07:46:43.094Z,982.50
2018-03-25T07:47:43.296Z,982.52
2018-03-25T07:48:43.492Z,982.51
2018-03-25T07:49:43.642Z,982.56
2018-03-25T07:50:43.823Z,982.58
2018-03-25T07:51:44.003Z,982.52
2018-03-25T07:52:44.190Z,982.54
2018-03-25T07:53:44.386Z,982.54
2018-03-25T07:54:44.565Z,982.56
2018-03-25T07:55:44.745Z,982.55
2018-03-25T07:56:44.928Z,982.63
2018-03-25T07:57:45.111Z,982.59
2018-03-25T07:58:45.292Z,982.56
2018-03-25T07:59:45.497Z,982.57
2018-03-25T08:00:45.667Z,982.57
2018-03-25T08:01:45.850Z,982.55
2018-03-25T08:02:46.030Z,982.59
2018-03-25T08:03:46.204Z,982.63
2018-03-25T08:04:46.384Z,982.61
2018-03-25T08:05:46.546Z,982.61
2018-03-25T08:06:46.730Z,982.64
2018-03-25T08:07:46.919Z,982.60
2018-03-25T08:08:47.100Z,982.63
2018-03-25T08:09:47.281Z,982.63
2018-03-25T08:10:47.476Z,982.63
2018-03-25T08:11:47.663Z,982.58
2018-03-25T08:12:47.840Z,982.60
2018-03-25T08:13:48.023Z,982.61
2018-03-25T08:14:48.201Z,982.62
2018-03-25T08:15:48.385Z,982.65
2018-03-25T08:16:48.570Z,982.63
2018-03-25T08:17:48.752Z,982.60
2018-03-25T08:18:48.931Z,982.64
2018-03-25T08:19:49.126Z,982.67
2018-03-25T08:20:49.325Z,982.68
2018-03-25T08:21:49.501Z,982.64
2018-03-25T08:22:49.676Z,982.66
2018-03-25T08:23:49.860Z,982.65
2018-03-25T08:24:50.049Z,982.67
2018-03-25T08:25:50.229Z,982.66
2018-03-25T08:26:50.414Z,982.66
2018-03-25T08:27:50.598Z,982.66
2018-03-25T08:28:50.775Z,982.69
2018-03-25T08:29:50.954Z,982.68
2018-03-25T08:30:51.134Z,982.65
2018-03-25T08:31:51.317Z,982.69
2018-03-25T08:32:51.506Z,982.65
2018-03-25T08:33:51.750Z,982.65
2018-03-25T08:34:52.115Z,982.69
2018-03-25T08:35:52.051Z,982.69
2018-03-25T08:36:52.251Z,982.72
2018-03-25T08:37:52.413Z,982.70
2018-03-25T08:38:52.595Z,982.69
2018-03-25T08:39:52.781Z,982.71
2018-03-25T08:40:52.964Z,982.74
2018-03-25T08:41:53.149Z,982.75
2018-03-25T08:42:53.387Z,982.76
2018-03-25T08:43:53.508Z,982.72
2018-03-25T08:44:53.699Z,982.76
2018-03-25T08:45:53.893Z,982.78
2018-03-25T08:46:54.053Z,982.75
2018-03-25T08:47:54.236Z,982.75
2018-03-25T08:48:54.433Z,982.76
2018-03-25T08:49:54.609Z,982.73
2018-03-25T08:50:54.798Z,982.72
2018-03-25T08:51:54.995Z,982.72
2018-03-25T08:52:55.179Z,982.67
2018-03-25T08:53:55.363Z,982.68
2018-03-25T08:54:55.573Z,982.66
2018-03-25T08:55:55.727Z,982.72
2018-03-25T08:56:55.905Z,982.73
2018-03-25T08:57:56.083Z,982.74
2018-03-25T08:58:56.529Z,982.74
2018-03-25T08:59:56.432Z,982.69
2018-03-25T09:00:56.641Z,982.74
2018-03-25T09:01:56.828Z,982.70
2018-03-25T09:02:57.014Z,982.74
2018-03-25T09:03:57.252Z,982.72
2018-03-25T09:04:57.381Z,982.72
2018-03-25T09:05:57.570Z,982.71
2018-03-25T09:06:57.791Z,982.70
2018-03-25T09:07:57.957Z,982.71
2018-03-25T09:08:58.142Z,982.70
2018-03-25T09:09:58.325Z,982.72
2018-03-25T09:10:58.528Z,982.70
2018-03-25T09:11:58.693Z,982.68
2018-03-25T09:12:58.877Z,982.67
2018-03-25T09:13:59.049Z,982.66
2018-03-25T09:14:59.293Z,982.71
2018-03-25T09:15:59.424Z,982.72
2018-03-25T09:16:59.612Z,982.66
2018-03-25T09:17:59.795Z,982.69
2018-03-25T09:18:59.980Z,982.69
2018-03-25T09:20:00.168Z,982.69
2018-03-25T09:21:00.341Z,982.74
2018-03-25T09:22:00.567Z,982.73
2018-03-25T09:23:00.726Z,982.76
2018-03-25T09:24:00.904Z,982.75
2018-03-25T09:25:01.097Z,982.73
2018-03-25T09:26:01.284Z,982.74
2018-03-25T09:27:01.466Z,982.75
2018-03-25T09:28:01.659Z,982.71
2018-03-25T09:29:01.850Z,982.76
2018-03-25T09:30:02.285Z,982.72
2018-03-25T09:31:02.213Z,982.69
2018-03-25T09:32:02.409Z,982.67
2018-03-25T09:33:02.587Z,982.75
2018-03-25T09:34:02.772Z,982.76
2018-03-25T09:35:02.967Z,982.75
2018-03-25T09:36:03.144Z,982.74
2018-03-25T09:37:03.336Z,982.76
2018-03-25T09:38:03.532Z,982.76
2018-03-25T09:39:03.713Z,982.80
2018-03-25T09:40:03.900Z,982.77
2018-03-25T09:41:04.085Z,982.76
2018-03-25T09:42:04.299Z,982.80
2018-03-25T09:43:04.449Z,982.79
2018-03-25T09:44:04.657Z,982.79
2018-03-25T09:45:04.838Z,982.78
2018-03-25T09:46:05.002Z,982.80
2018-03-25T09:47:05.186Z,982.78
2018-03-25T09:48:05.406Z,982.74
2018-03-25T09:49:06.448Z,982.78
2018-03-25T09:50:05.789Z,982.77
2018-03-25T09:51:06.210Z,982.75
2018-03-25T09:52:06.108Z,982.79
2018-03-25T09:53:06.978Z,982.75
2018-03-25T09:54:07.448Z,982.74
2018-03-25T09:55:06.774Z,982.73
2018-03-25T09:56:06.959Z,982.74
2018-03-25T09:57:07.105Z,982.75
2018-03-25T09:58:07.277Z,982.74
2018-03-25T09:59:07.460Z,982.75
2018-03-25T10:00:07.635Z,982.80
2018-03-25T10:01:07.815Z,982.77
2018-03-25T10:02:08.004Z,982.79
2018-03-25T10:03:08.202Z,982.76
2018-03-25T10:04:08.396Z,982.79
2018-03-25T10:05:08.877Z,982.76
2018-03-25T10:06:08.748Z,982.76
2018-03-25T10:07:08.953Z,982.75
2018-03-25T10:08:09.132Z,982.74
2018-03-25T10:09:09.300Z,982.76
2018-03-25T10:10:09.534Z,982.77
2018-03-25T10:11:09.682Z,982.73
2018-03-25T10:12:09.897Z,982.71
2018-03-25T10:13:10.041Z,982.73
2018-03-25T10:14:10.201Z,982.73
2018-03-25T10:15:10.404Z,982.75
2018-03-25T10:16:10.561Z,982.75
2018-03-25T10:17:10.736Z,982.73
2018-03-25T10:18:10.924Z,982.73
2018-03-25T10:19:11.134Z,982.71
2018-03-25T10:20:11.897Z,982.72
2018-03-25T10:21:11.498Z,982.77
2018-03-25T10:22:11.670Z,982.76
2018-03-25T10:23:11.878Z,982.72
2018-03-25T10:24:12.036Z,982.74
2018-03-25T10:25:12.233Z,982.72
2018-03-25T10:26:12.435Z,982.72
2018-03-25T10:27:12.582Z,982.77
2018-03-25T10:28:12.844Z,982.78
2018-03-25T10:29:12.895Z,982.77
2018-03-25T10:30:13.076Z,982.80
2018-03-25T10:31:13.259Z,982.78
2018-03-25T10:32:13.433Z,982.75
2018-03-25T10:33:13.636Z,982.74
2018-03-25T10:34:13.789Z,982.76
2018-03-25T10:35:13.989Z,982.71
2018-03-25T10:36:14.163Z,982.71
2018-03-25T10:37:14.331Z,982.69
2018-03-25T10:38:14.502Z,982.69
2018-03-25T10:39:14.688Z,982.69
2018-03-25T10:40:14.870Z,982.67
2018-03-25T10:41:15.056Z,982.72
2018-03-25T10:42:15.238Z,982.69
2018-03-25T10:43:15.431Z,982.67
2018-03-25T10:44:15.629Z,982.67
2018-03-25T10:45:15.901Z,982.68
2018-03-25T10:46:16.025Z,982.67
2018-03-25T10:47:16.195Z,982.66
2018-03-25T10:48:16.368Z,982.67
2018-03-25T10:49:16.576Z,982.65
2018-03-25T10:50:16.716Z,982.64
2018-03-25T10:51:16.904Z,982.69
2018-03-25T10:52:17.065Z,982.67
2018-03-25T10:53:17.248Z,982.67
2018-03-25T10:54:17.454Z,982.67
2018-03-25T10:55:17.582Z,982.67
2018-03-25T10:56:17.763Z,982.71
2018-03-25T10:57:17.958Z,982.69
2018-03-25T10:58:18.170Z,982.66
2018-03-25T11:00:18.496Z,982.64
2018-03-25T11:01:18.654Z,982.67
2018-03-25T11:02:18.867Z,982.73
2018-03-25T11:03:19.021Z,982.72
2018-03-25T11:04:19.204Z,982.73
2018-03-25T11:05:19.408Z,982.75
2018-03-25T11:06:19.606Z,982.70
2018-03-25T11:07:19.795Z,982.71
2018-03-25T11:08:20.004Z,982.69
2018-03-25T11:09:20.133Z,982.66
2018-03-25T11:10:20.295Z,982.68
2018-03-25T11:11:20.490Z,982.69
2018-03-25T11:12:20.684Z,982.70
2018-03-25T11:13:20.833Z,982.69
2018-03-25T11:14:21.027Z,982.69
2018-03-25T11:15:21.235Z,982.67
2018-03-25T11:16:21.401Z,982.72
2018-03-25T11:17:21.643Z,982.67
2018-03-25T11:18:21.732Z,982.67
2018-03-25T11:19:21.924Z,982.70
2018-03-25T11:20:22.120Z,982.66
2018-03-25T11:21:22.263Z,982.66
2018-03-25T11:22:22.459Z,982.72
2018-03-25T11:23:22.660Z,982.72
2018-03-25T11:24:22.859Z,982.70
2018-03-25T11:25:23.035Z,982.71
2018-03-25T11:26:23.261Z,982.66
2018-03-25T11:27:23.356Z,982.69
2018-03-25T11:28:23.509Z,982.65
2018-03-25T11:29:23.705Z,982.63
2018-03-25T11:30:23.910Z,982.64
2018-03-25T11:31:24.065Z,982.66
2018-03-25T11:32:24.265Z,982.65
2018-03-25T11:33:25.016Z,982.67
2018-03-25T11:34:25.666Z,982.61
2018-03-25T11:35:24.829Z,982.59
2018-03-25T11:36:25.034Z,982.62
2018-03-25T11:37:25.239Z,982.60
2018-03-25T11:38:25.426Z,982.57
2018-03-25T11:39:25.588Z,982.56
2018-03-25T11:40:25.985Z,982.54
2018-03-25T11:41:25.931Z,982.55
2018-03-25T11:42:26.119Z,982.56
2018-03-25T11:43:26.275Z,982.60
2018-03-25T11:44:26.460Z,982.60
2018-03-25T11:45:26.641Z,982.59
2018-03-25T11:46:26.884Z,982.58
2018-03-25T11:47:27.092Z,982.53
2018-03-25T11:48:27.213Z,982.53
2018-03-25T11:49:27.445Z,982.60
2018-03-25T11:50:27.589Z,982.57
2018-03-25T11:51:27.766Z,982.56
2018-03-25T11:52:27.944Z,982.55
2018-03-25T11:53:28.113Z,982.57
2018-03-25T11:54:28.293Z,982.52
2018-03-25T11:55:28.559Z,982.58
2018-03-25T11:56:28.691Z,982.55
2018-03-25T11:57:28.875Z,982.55
2018-03-25T11:58:29.055Z,982.57
2018-03-25T11:59:29.272Z,982.56
2018-03-25T12:00:29.444Z,982.55
2018-03-25T12:01:29.617Z,982.54
2018-03-25T12:02:29.832Z,982.49
2018-03-25T12:03:30.004Z,982.49
2018-03-25T12:05:31.043Z,982.50
2018-03-25T12:06:30.538Z,982.50
2018-03-25T12:07:30.713Z,982.49
2018-03-25T12:08:30.893Z,982.46
2018-03-25T12:09:31.079Z,982.49
2018-03-25T12:10:31.349Z,982.49
2018-03-25T12:11:31.489Z,982.45
2018-03-25T12:12:31.648Z,982.47
2018-03-25T12:13:31.808Z,982.52
2018-03-25T12:14:31.979Z,982.49
2018-03-25T12:15:32.214Z,982.45
2018-03-25T12:16:32.411Z,982.44
2018-03-25T12:17:32.591Z,982.39
2018-03-25T12:18:32.803Z,982.45
2018-03-25T12:19:32.970Z,982.44
2018-03-25T12:20:33.142Z,982.42
2018-03-25T12:21:33.327Z,982.48
2018-03-25T12:22:33.498Z,982.47
2018-03-25T12:23:33.685Z,982.43
2018-03-25T12:24:33.870Z,982.42
2018-03-25T12:25:34.056Z,982.38
2018-03-25T12:26:34.235Z,982.38
2018-03-25T12:27:34.433Z,982.39
2018-03-25T12:28:34.600Z,982.39
2018-03-25T12:29:34.783Z,982.43
2018-03-25T12:30:34.983Z,982.41
2018-03-25T12:31:35.140Z,982.36
2018-03-25T12:32:35.314Z,982.40
2018-03-25T12:33:35.498Z,982.34
2018-03-25T12:34:35.681Z,982.33
2018-03-25T12:35:36.145Z,982.38
2018-03-25T12:36:36.048Z,982.34